sensor_id;sensor_type;location;lat;lon;timestamp;P1;durP1;ratioP1;P2;durP2;ratioP2
49221;SDS011;35047;37.588;-122.048;2022-08-02T00:02:01;1.88;;;0.80;;
49221;SDS011;35047;37.588;-122.048;2022-08-02T00:04:29;4.13;;;1.10;;
49221;SDS011;35047;37.588;-122.048;2022-08-02T00:06:57;2.95;;;0.90;;
49221;SDS011;35047;37.588;-122.048;2022-08-02T00:09:24;2.25;;;0.75;;
49221;SDS011;35047;37.588;-122.048;2022-08-02T00:14:17;1.83;;;0.77;;
49221;SDS011;35047;37.588;-122.048;2022-08-02T00:19:11;1.65;;;0.80;;
49221;SDS011;35047;37.588;-122.048;2022-08-02T00:24:03;1.98;;;0.80;;
49221;SDS011;35047;37.588;-122.048;2022-08-02T00:26:30;1.00;;;0.60;;
49221;SDS011;35047;37.588;-122.048;2022-08-02T00:28:57;2.75;;;0.60;;
49221;SDS011;35047;37.588;-122.048;2022-08-02T00:33:53;2.63;;;0.75;;
49221;SDS011;35047;37.588;-122.048;2022-08-02T00:36:20;5.03;;;1.08;;
49221;SDS011;35047;37.588;-122.048;2022-08-02T00:38:47;1.58;;;0.90;;
49221;SDS011;35047;37.588;-122.048;2022-08-02T00:41:16;2.95;;;0.73;;
49221;SDS011;35047;37.588;-122.048;2022-08-02T00:43:45;5.25;;;1.05;;
49221;SDS011;35047;37.588;-122.048;2022-08-02T00:46:14;1.70;;;0.77;;
49221;SDS011;35047;37.588;-122.048;2022-08-02T00:48:41;1.80;;;1.00;;
49221;SDS011;35047;37.588;-122.048;2022-08-02T00:51:08;5.65;;;1.02;;
49221;SDS011;35047;37.588;-122.048;2022-08-02T00:53:36;2.00;;;1.30;;
49221;SDS011;35047;37.588;-122.048;2022-08-02T00:58:28;4.40;;;1.15;;
49221;SDS011;35047;37.588;-122.048;2022-08-02T01:00:55;2.50;;;1.10;;
49221;SDS011;35047;37.588;-122.048;2022-08-02T01:03:25;2.55;;;1.00;;
49221;SDS011;35047;37.588;-122.048;2022-08-02T01:05:52;1.70;;;1.02;;
49221;SDS011;35047;37.588;-122.048;2022-08-02T01:08:23;2.88;;;1.50;;
49221;SDS011;35047;37.588;-122.048;2022-08-02T01:10:50;1.30;;;1.20;;
49221;SDS011;35047;37.588;-122.048;2022-08-02T01:15:44;5.68;;;1.50;;
49221;SDS011;35047;37.588;-122.048;2022-08-02T01:18:26;0.80;;;0.80;;
49221;SDS011;35047;37.588;-122.048;2022-08-02T01:23:50;5.72;;;4.15;;
49221;SDS011;35047;37.588;-122.048;2022-08-02T01:29:06;4.35;;;2.97;;
49221;SDS011;35047;37.588;-122.048;2022-08-02T01:34:23;0.90;;;0.70;;
49221;SDS011;35047;37.588;-122.048;2022-08-02T01:37:23;1.67;;;0.70;;
49221;SDS011;35047;37.588;-122.048;2022-08-02T01:39:53;2.53;;;1.10;;
49221;SDS011;35047;37.588;-122.048;2022-08-02T01:42:27;1.42;;;0.60;;
49221;SDS011;35047;37.588;-122.048;2022-08-02T01:44:55;1.13;;;0.60;;
49221;SDS011;35047;37.588;-122.048;2022-08-02T01:47:28;1.95;;;0.80;;
49221;SDS011;35047;37.588;-122.048;2022-08-02T01:49:58;1.35;;;0.80;;
49221;SDS011;35047;37.588;-122.048;2022-08-02T01:52:27;0.70;;;0.70;;
49221;SDS011;35047;37.588;-122.048;2022-08-02T01:57:30;1.65;;;0.70;;
49221;SDS011;35047;37.588;-122.048;2022-08-02T02:00:01;3.90;;;1.00;;
49221;SDS011;35047;37.588;-122.048;2022-08-02T02:02:29;2.50;;;0.90;;
49221;SDS011;35047;37.588;-122.048;2022-08-02T02:04:57;2.30;;;0.75;;
49221;SDS011;35047;37.588;-122.048;2022-08-02T02:07:25;1.80;;;0.80;;
49221;SDS011;35047;37.588;-122.048;2022-08-02T02:09:54;3.00;;;1.00;;
49221;SDS011;35047;37.588;-122.048;2022-08-02T02:12:23;3.92;;;0.80;;
49221;SDS011;35047;37.588;-122.048;2022-08-02T02:14:51;2.47;;;0.80;;
49221;SDS011;35047;37.588;-122.048;2022-08-02T02:17:19;2.63;;;1.13;;
49221;SDS011;35047;37.588;-122.048;2022-08-02T02:19:47;2.80;;;1.00;;
49221;SDS011;35047;37.588;-122.048;2022-08-02T02:22:15;3.45;;;1.20;;
49221;SDS011;35047;37.588;-122.048;2022-08-02T02:27:09;5.68;;;2.65;;
49221;SDS011;35047;37.588;-122.048;2022-08-02T02:29:38;4.45;;;2.40;;
49221;SDS011;35047;37.588;-122.048;2022-08-02T02:32:10;5.93;;;2.17;;
49221;SDS011;35047;37.588;-122.048;2022-08-02T02:34:40;6.47;;;1.85;;
49221;SDS011;35047;37.588;-122.048;2022-08-02T02:37:12;3.88;;;1.90;;
49221;SDS011;35047;37.588;-122.048;2022-08-02T02:39:50;5.28;;;1.75;;
49221;SDS011;35047;37.588;-122.048;2022-08-02T02:42:21;3.35;;;1.63;;
49221;SDS011;35047;37.588;-122.048;2022-08-02T02:44:52;5.63;;;1.20;;
49221;SDS011;35047;37.588;-122.048;2022-08-02T02:47:20;3.67;;;1.05;;
49221;SDS011;35047;37.588;-122.048;2022-08-02T02:52:16;2.97;;;1.40;;
49221;SDS011;35047;37.588;-122.048;2022-08-02T02:54:45;2.58;;;1.20;;
49221;SDS011;35047;37.588;-122.048;2022-08-02T02:57:15;2.22;;;1.25;;
49221;SDS011;35047;37.588;-122.048;2022-08-02T02:59:42;3.22;;;1.20;;
49221;SDS011;35047;37.588;-122.048;2022-08-02T03:02:09;5.38;;;1.20;;
49221;SDS011;35047;37.588;-122.048;2022-08-02T03:04:36;4.47;;;1.73;;
49221;SDS011;35047;37.588;-122.048;2022-08-02T03:07:09;1.90;;;1.20;;
49221;SDS011;35047;37.588;-122.048;2022-08-02T03:09:36;1.88;;;1.38;;
49221;SDS011;35047;37.588;-122.048;2022-08-02T03:12:02;2.10;;;1.50;;
49221;SDS011;35047;37.588;-122.048;2022-08-02T03:14:30;2.05;;;1.30;;
49221;SDS011;35047;37.588;-122.048;2022-08-02T03:16:58;2.30;;;1.17;;
49221;SDS011;35047;37.588;-122.048;2022-08-02T03:19:25;2.13;;;1.35;;
49221;SDS011;35047;37.588;-122.048;2022-08-02T03:21:52;2.40;;;1.40;;
49221;SDS011;35047;37.588;-122.048;2022-08-02T03:24:19;2.13;;;1.00;;
49221;SDS011;35047;37.588;-122.048;2022-08-02T03:26:46;2.33;;;1.40;;
49221;SDS011;35047;37.588;-122.048;2022-08-02T03:29:12;3.08;;;1.30;;
49221;SDS011;35047;37.588;-122.048;2022-08-02T03:31:39;6.38;;;1.90;;
49221;SDS011;35047;37.588;-122.048;2022-08-02T03:34:11;1.92;;;1.20;;
49221;SDS011;35047;37.588;-122.048;2022-08-02T03:36:38;1.30;;;1.20;;
49221;SDS011;35047;37.588;-122.048;2022-08-02T03:39:07;1.83;;;1.40;;
49221;SDS011;35047;37.588;-122.048;2022-08-02T03:41:35;4.78;;;1.20;;
49221;SDS011;35047;37.588;-122.048;2022-08-02T03:44:03;2.05;;;1.13;;
49221;SDS011;35047;37.588;-122.048;2022-08-02T03:46:31;2.53;;;1.60;;
49221;SDS011;35047;37.588;-122.048;2022-08-02T03:48:59;3.90;;;1.20;;
49221;SDS011;35047;37.588;-122.048;2022-08-02T03:51:27;2.25;;;1.33;;
49221;SDS011;35047;37.588;-122.048;2022-08-02T03:53:54;1.77;;;0.93;;
49221;SDS011;35047;37.588;-122.048;2022-08-02T03:56:22;2.25;;;1.20;;
49221;SDS011;35047;37.588;-122.048;2022-08-02T03:59:03;1.25;;;1.08;;
49221;SDS011;35047;37.588;-122.048;2022-08-02T04:01:30;2.08;;;1.10;;
49221;SDS011;35047;37.588;-122.048;2022-08-02T04:03:58;3.03;;;1.20;;
49221;SDS011;35047;37.588;-122.048;2022-08-02T04:06:24;3.58;;;1.23;;
49221;SDS011;35047;37.588;-122.048;2022-08-02T04:08:51;2.92;;;1.48;;
49221;SDS011;35047;37.588;-122.048;2022-08-02T04:11:17;4.97;;;1.45;;
49221;SDS011;35047;37.588;-122.048;2022-08-02T04:14:00;1.85;;;1.10;;
49221;SDS011;35047;37.588;-122.048;2022-08-02T04:19:06;3.60;;;1.52;;
49221;SDS011;35047;37.588;-122.048;2022-08-02T04:21:35;2.92;;;1.30;;
49221;SDS011;35047;37.588;-122.048;2022-08-02T04:24:06;6.05;;;1.20;;
49221;SDS011;35047;37.588;-122.048;2022-08-02T04:26:35;2.15;;;1.20;;
49221;SDS011;35047;37.588;-122.048;2022-08-02T04:29:02;3.75;;;1.40;;
49221;SDS011;35047;37.588;-122.048;2022-08-02T04:31:30;4.25;;;1.42;;
49221;SDS011;35047;37.588;-122.048;2022-08-02T04:33:57;2.33;;;1.33;;
49221;SDS011;35047;37.588;-122.048;2022-08-02T04:36:24;4.40;;;1.50;;
49221;SDS011;35047;37.588;-122.048;2022-08-02T04:38:52;2.50;;;1.50;;
49221;SDS011;35047;37.588;-122.048;2022-08-02T04:41:19;5.70;;;1.70;;
49221;SDS011;35047;37.588;-122.048;2022-08-02T04:43:46;3.08;;;1.60;;
49221;SDS011;35047;37.588;-122.048;2022-08-02T04:46:12;4.20;;;1.60;;
49221;SDS011;35047;37.588;-122.048;2022-08-02T04:48:40;6.10;;;1.55;;
49221;SDS011;35047;37.588;-122.048;2022-08-02T04:51:06;2.20;;;1.38;;
49221;SDS011;35047;37.588;-122.048;2022-08-02T04:53:33;2.63;;;1.67;;
49221;SDS011;35047;37.588;-122.048;2022-08-02T04:56:00;2.13;;;1.85;;
49221;SDS011;35047;37.588;-122.048;2022-08-02T04:58:27;3.17;;;1.38;;
49221;SDS011;35047;37.588;-122.048;2022-08-02T05:00:54;3.42;;;1.33;;
49221;SDS011;35047;37.588;-122.048;2022-08-02T05:03:20;2.72;;;1.52;;
49221;SDS011;35047;37.588;-122.048;2022-08-02T05:05:48;3.53;;;1.48;;
49221;SDS011;35047;37.588;-122.048;2022-08-02T05:08:14;3.20;;;1.90;;
49221;SDS011;35047;37.588;-122.048;2022-08-02T05:10:41;4.38;;;1.95;;
49221;SDS011;35047;37.588;-122.048;2022-08-02T05:13:07;3.50;;;1.58;;
49221;SDS011;35047;37.588;-122.048;2022-08-02T05:15:34;1.73;;;1.45;;
49221;SDS011;35047;37.588;-122.048;2022-08-02T05:18:02;4.10;;;1.70;;
49221;SDS011;35047;37.588;-122.048;2022-08-02T05:20:28;2.95;;;1.30;;
49221;SDS011;35047;37.588;-122.048;2022-08-02T05:22:56;3.60;;;1.40;;
49221;SDS011;35047;37.588;-122.048;2022-08-02T05:25:22;3.38;;;1.40;;
49221;SDS011;35047;37.588;-122.048;2022-08-02T05:27:50;2.83;;;1.30;;
49221;SDS011;35047;37.588;-122.048;2022-08-02T05:30:16;2.22;;;1.35;;
49221;SDS011;35047;37.588;-122.048;2022-08-02T05:32:45;3.88;;;1.60;;
49221;SDS011;35047;37.588;-122.048;2022-08-02T05:35:16;7.47;;;1.63;;
49221;SDS011;35047;37.588;-122.048;2022-08-02T05:37:44;2.13;;;1.20;;
49221;SDS011;35047;37.588;-122.048;2022-08-02T05:42:37;3.45;;;1.50;;
49221;SDS011;35047;37.588;-122.048;2022-08-02T05:45:05;4.88;;;1.70;;
49221;SDS011;35047;37.588;-122.048;2022-08-02T05:47:33;4.32;;;1.50;;
49221;SDS011;35047;37.588;-122.048;2022-08-02T05:50:00;1.88;;;1.40;;
49221;SDS011;35047;37.588;-122.048;2022-08-02T05:52:33;1.98;;;1.55;;
49221;SDS011;35047;37.588;-122.048;2022-08-02T05:55:17;3.17;;;1.50;;
49221;SDS011;35047;37.588;-122.048;2022-08-02T05:58:13;6.88;;;2.42;;
49221;SDS011;35047;37.588;-122.048;2022-08-02T06:01:00;3.22;;;1.30;;
49221;SDS011;35047;37.588;-122.048;2022-08-02T06:03:34;2.85;;;1.70;;
49221;SDS011;35047;37.588;-122.048;2022-08-02T06:11:14;3.60;;;1.60;;
49221;SDS011;35047;37.588;-122.048;2022-08-02T06:13:48;2.75;;;1.30;;
49221;SDS011;35047;37.588;-122.048;2022-08-02T06:16:16;4.63;;;1.25;;
49221;SDS011;35047;37.588;-122.048;2022-08-02T06:18:44;2.33;;;1.33;;
49221;SDS011;35047;37.588;-122.048;2022-08-02T06:21:11;2.55;;;1.23;;
49221;SDS011;35047;37.588;-122.048;2022-08-02T06:23:41;2.60;;;1.27;;
49221;SDS011;35047;37.588;-122.048;2022-08-02T06:26:08;2.90;;;1.45;;
49221;SDS011;35047;37.588;-122.048;2022-08-02T06:28:37;2.17;;;1.20;;
49221;SDS011;35047;37.588;-122.048;2022-08-02T06:31:04;3.47;;;1.23;;
49221;SDS011;35047;37.588;-122.048;2022-08-02T06:33:32;1.60;;;1.10;;
49221;SDS011;35047;37.588;-122.048;2022-08-02T06:36:02;2.42;;;1.20;;
49221;SDS011;35047;37.588;-122.048;2022-08-02T06:38:39;3.20;;;1.30;;
49221;SDS011;35047;37.588;-122.048;2022-08-02T06:41:08;2.28;;;1.52;;
49221;SDS011;35047;37.588;-122.048;2022-08-02T06:43:54;4.28;;;1.48;;
49221;SDS011;35047;37.588;-122.048;2022-08-02T06:46:29;5.80;;;1.70;;
49221;SDS011;35047;37.588;-122.048;2022-08-02T06:48:56;4.25;;;1.58;;
49221;SDS011;35047;37.588;-122.048;2022-08-02T06:51:24;2.35;;;1.60;;
49221;SDS011;35047;37.588;-122.048;2022-08-02T06:53:51;3.95;;;1.95;;
49221;SDS011;35047;37.588;-122.048;2022-08-02T06:56:17;2.07;;;1.50;;
49221;SDS011;35047;37.588;-122.048;2022-08-02T06:58:45;5.57;;;2.03;;
49221;SDS011;35047;37.588;-122.048;2022-08-02T07:01:11;3.85;;;1.92;;
49221;SDS011;35047;37.588;-122.048;2022-08-02T07:03:39;4.88;;;1.88;;
49221;SDS011;35047;37.588;-122.048;2022-08-02T07:08:33;5.05;;;1.95;;
49221;SDS011;35047;37.588;-122.048;2022-08-02T07:11:06;3.92;;;1.70;;
49221;SDS011;35047;37.588;-122.048;2022-08-02T07:13:34;5.32;;;2.05;;
49221;SDS011;35047;37.588;-122.048;2022-08-02T07:16:01;4.70;;;2.08;;
49221;SDS011;35047;37.588;-122.048;2022-08-02T07:18:28;10.75;;;2.58;;
49221;SDS011;35047;37.588;-122.048;2022-08-02T07:20:55;3.15;;;1.90;;
49221;SDS011;35047;37.588;-122.048;2022-08-02T07:25:49;3.95;;;1.80;;
49221;SDS011;35047;37.588;-122.048;2022-08-02T07:28:16;3.42;;;2.17;;
49221;SDS011;35047;37.588;-122.048;2022-08-02T07:30:42;3.47;;;2.47;;
49221;SDS011;35047;37.588;-122.048;2022-08-02T07:33:10;4.85;;;2.40;;
49221;SDS011;35047;37.588;-122.048;2022-08-02T07:35:36;6.00;;;2.20;;
49221;SDS011;35047;37.588;-122.048;2022-08-02T07:38:04;3.30;;;2.08;;
49221;SDS011;35047;37.588;-122.048;2022-08-02T07:40:31;3.28;;;1.90;;
49221;SDS011;35047;37.588;-122.048;2022-08-02T07:42:59;4.20;;;2.25;;
49221;SDS011;35047;37.588;-122.048;2022-08-02T07:45:25;3.53;;;1.75;;
49221;SDS011;35047;37.588;-122.048;2022-08-02T07:47:53;4.05;;;2.22;;
49221;SDS011;35047;37.588;-122.048;2022-08-02T07:50:21;4.88;;;2.00;;
49221;SDS011;35047;37.588;-122.048;2022-08-02T07:52:48;3.13;;;1.90;;
49221;SDS011;35047;37.588;-122.048;2022-08-02T07:55:15;4.63;;;1.60;;
49221;SDS011;35047;37.588;-122.048;2022-08-02T07:57:42;5.95;;;1.98;;
49221;SDS011;35047;37.588;-122.048;2022-08-02T08:02:36;4.03;;;2.20;;
49221;SDS011;35047;37.588;-122.048;2022-08-02T08:05:04;4.47;;;2.58;;
49221;SDS011;35047;37.588;-122.048;2022-08-02T08:07:31;5.30;;;2.10;;
49221;SDS011;35047;37.588;-122.048;2022-08-02T08:09:59;3.75;;;2.30;;
49221;SDS011;35047;37.588;-122.048;2022-08-02T08:12:26;4.93;;;1.95;;
49221;SDS011;35047;37.588;-122.048;2022-08-02T08:14:54;4.88;;;1.90;;
49221;SDS011;35047;37.588;-122.048;2022-08-02T08:17:20;4.75;;;2.08;;
49221;SDS011;35047;37.588;-122.048;2022-08-02T08:19:48;3.22;;;2.00;;
49221;SDS011;35047;37.588;-122.048;2022-08-02T08:22:14;2.97;;;1.50;;
49221;SDS011;35047;37.588;-122.048;2022-08-02T08:24:41;5.60;;;1.70;;
49221;SDS011;35047;37.588;-122.048;2022-08-02T08:27:07;2.10;;;1.63;;
49221;SDS011;35047;37.588;-122.048;2022-08-02T08:29:39;3.30;;;1.80;;
49221;SDS011;35047;37.588;-122.048;2022-08-02T08:32:06;3.78;;;2.03;;
49221;SDS011;35047;37.588;-122.048;2022-08-02T08:34:33;5.72;;;1.73;;
49221;SDS011;35047;37.588;-122.048;2022-08-02T08:37:00;3.50;;;1.65;;
49221;SDS011;35047;37.588;-122.048;2022-08-02T08:39:28;3.40;;;1.70;;
49221;SDS011;35047;37.588;-122.048;2022-08-02T08:41:56;2.75;;;1.52;;
49221;SDS011;35047;37.588;-122.048;2022-08-02T08:44:23;3.33;;;1.98;;
49221;SDS011;35047;37.588;-122.048;2022-08-02T08:46:51;3.80;;;1.77;;
49221;SDS011;35047;37.588;-122.048;2022-08-02T08:52:00;3.80;;;1.90;;
49221;SDS011;35047;37.588;-122.048;2022-08-02T08:54:30;3.03;;;1.88;;
49221;SDS011;35047;37.588;-122.048;2022-08-02T08:56:57;2.75;;;1.83;;
49221;SDS011;35047;37.588;-122.048;2022-08-02T08:59:25;3.95;;;1.80;;
49221;SDS011;35047;37.588;-122.048;2022-08-02T09:01:52;6.47;;;1.70;;
49221;SDS011;35047;37.588;-122.048;2022-08-02T09:04:20;4.07;;;1.60;;
49221;SDS011;35047;37.588;-122.048;2022-08-02T09:06:48;2.85;;;1.30;;
49221;SDS011;35047;37.588;-122.048;2022-08-02T09:09:15;3.63;;;1.75;;
49221;SDS011;35047;37.588;-122.048;2022-08-02T09:11:41;4.18;;;1.50;;
49221;SDS011;35047;37.588;-122.048;2022-08-02T09:14:08;2.88;;;1.40;;
49221;SDS011;35047;37.588;-122.048;2022-08-02T09:19:18;4.43;;;1.52;;
49221;SDS011;35047;37.588;-122.048;2022-08-02T09:21:48;3.03;;;1.55;;
49221;SDS011;35047;37.588;-122.048;2022-08-02T09:24:42;2.72;;;1.67;;
49221;SDS011;35047;37.588;-122.048;2022-08-02T09:27:14;2.28;;;1.60;;
49221;SDS011;35047;37.588;-122.048;2022-08-02T09:29:46;3.17;;;1.73;;
49221;SDS011;35047;37.588;-122.048;2022-08-02T09:32:17;3.50;;;2.28;;
49221;SDS011;35047;37.588;-122.048;2022-08-02T09:37:31;2.53;;;1.63;;
49221;SDS011;35047;37.588;-122.048;2022-08-02T09:39:57;2.88;;;1.63;;
49221;SDS011;35047;37.588;-122.048;2022-08-02T09:42:25;3.28;;;1.67;;
49221;SDS011;35047;37.588;-122.048;2022-08-02T09:45:00;5.22;;;1.80;;
49221;SDS011;35047;37.588;-122.048;2022-08-02T09:47:28;3.03;;;1.70;;
49221;SDS011;35047;37.588;-122.048;2022-08-02T09:49:55;4.30;;;1.80;;
49221;SDS011;35047;37.588;-122.048;2022-08-02T09:52:29;2.45;;;1.30;;
49221;SDS011;35047;37.588;-122.048;2022-08-02T09:55:05;5.20;;;2.05;;
49221;SDS011;35047;37.588;-122.048;2022-08-02T09:57:33;3.60;;;1.60;;
49221;SDS011;35047;37.588;-122.048;2022-08-02T10:00:05;3.70;;;1.77;;
49221;SDS011;35047;37.588;-122.048;2022-08-02T10:02:37;2.20;;;1.45;;
49221;SDS011;35047;37.588;-122.048;2022-08-02T10:05:04;2.35;;;1.60;;
49221;SDS011;35047;37.588;-122.048;2022-08-02T10:07:31;5.32;;;1.65;;
49221;SDS011;35047;37.588;-122.048;2022-08-02T10:09:58;1.92;;;1.30;;
49221;SDS011;35047;37.588;-122.048;2022-08-02T10:12:25;3.25;;;1.75;;
49221;SDS011;35047;37.588;-122.048;2022-08-02T10:14:53;3.47;;;1.90;;
49221;SDS011;35047;37.588;-122.048;2022-08-02T10:17:19;3.45;;;1.95;;
49221;SDS011;35047;37.588;-122.048;2022-08-02T10:19:46;4.37;;;1.73;;
49221;SDS011;35047;37.588;-122.048;2022-08-02T10:22:14;2.75;;;1.63;;
49221;SDS011;35047;37.588;-122.048;2022-08-02T10:24:41;4.13;;;1.50;;
49221;SDS011;35047;37.588;-122.048;2022-08-02T10:27:13;4.15;;;2.22;;
49221;SDS011;35047;37.588;-122.048;2022-08-02T10:29:44;3.55;;;1.50;;
49221;SDS011;35047;37.588;-122.048;2022-08-02T10:32:16;3.10;;;1.92;;
49221;SDS011;35047;37.588;-122.048;2022-08-02T10:35:08;2.65;;;1.67;;
49221;SDS011;35047;37.588;-122.048;2022-08-02T10:37:43;4.07;;;1.60;;
49221;SDS011;35047;37.588;-122.048;2022-08-02T10:40:11;2.78;;;1.95;;
49221;SDS011;35047;37.588;-122.048;2022-08-02T10:42:48;2.35;;;1.42;;
49221;SDS011;35047;37.588;-122.048;2022-08-02T10:45:17;2.10;;;1.75;;
49221;SDS011;35047;37.588;-122.048;2022-08-02T10:53:26;4.05;;;1.95;;
49221;SDS011;35047;37.588;-122.048;2022-08-02T10:56:02;7.13;;;1.92;;
49221;SDS011;35047;37.588;-122.048;2022-08-02T10:58:31;3.03;;;1.65;;
49221;SDS011;35047;37.588;-122.048;2022-08-02T11:01:02;3.20;;;1.70;;
49221;SDS011;35047;37.588;-122.048;2022-08-02T11:06:08;3.53;;;1.52;;
49221;SDS011;35047;37.588;-122.048;2022-08-02T11:08:37;3.80;;;1.55;;
49221;SDS011;35047;37.588;-122.048;2022-08-02T11:14:21;3.22;;;1.63;;
49221;SDS011;35047;37.588;-122.048;2022-08-02T11:17:33;4.38;;;1.80;;
49221;SDS011;35047;37.588;-122.048;2022-08-02T11:19:30;4.22;;;1.85;;
49221;SDS011;35047;37.588;-122.048;2022-08-02T11:22:06;4.47;;;1.70;;
49221;SDS011;35047;37.588;-122.048;2022-08-02T11:24:36;6.60;;;2.40;;
49221;SDS011;35047;37.588;-122.048;2022-08-02T11:27:07;4.78;;;1.77;;
49221;SDS011;35047;37.588;-122.048;2022-08-02T11:29:42;4.47;;;1.55;;
49221;SDS011;35047;37.588;-122.048;2022-08-02T11:32:17;5.93;;;1.80;;
49221;SDS011;35047;37.588;-122.048;2022-08-02T11:34:46;4.38;;;2.00;;
49221;SDS011;35047;37.588;-122.048;2022-08-02T11:40:16;2.90;;;1.45;;
49221;SDS011;35047;37.588;-122.048;2022-08-02T11:42:46;3.60;;;1.50;;
49221;SDS011;35047;37.588;-122.048;2022-08-02T11:45:23;7.47;;;2.60;;
49221;SDS011;35047;37.588;-122.048;2022-08-02T11:47:52;4.72;;;1.92;;
49221;SDS011;35047;37.588;-122.048;2022-08-02T11:52:50;4.47;;;1.90;;
49221;SDS011;35047;37.588;-122.048;2022-08-02T11:55:26;3.67;;;2.03;;
49221;SDS011;35047;37.588;-122.048;2022-08-02T11:57:59;3.42;;;1.75;;
49221;SDS011;35047;37.588;-122.048;2022-08-02T12:00:27;4.55;;;2.13;;
49221;SDS011;35047;37.588;-122.048;2022-08-02T12:02:55;3.42;;;1.52;;
49221;SDS011;35047;37.588;-122.048;2022-08-02T12:05:21;2.30;;;1.80;;
49221;SDS011;35047;37.588;-122.048;2022-08-02T12:07:49;2.15;;;1.40;;
49221;SDS011;35047;37.588;-122.048;2022-08-02T12:10:19;4.63;;;1.60;;
49221;SDS011;35047;37.588;-122.048;2022-08-02T12:12:49;3.17;;;1.58;;
49221;SDS011;35047;37.588;-122.048;2022-08-02T12:15:37;5.65;;;2.25;;
49221;SDS011;35047;37.588;-122.048;2022-08-02T12:18:17;3.70;;;1.75;;
49221;SDS011;35047;37.588;-122.048;2022-08-02T12:21:22;2.00;;;1.50;;
49221;SDS011;35047;37.588;-122.048;2022-08-02T12:23:50;3.00;;;1.40;;
49221;SDS011;35047;37.588;-122.048;2022-08-02T12:28:43;3.75;;;1.85;;
49221;SDS011;35047;37.588;-122.048;2022-08-02T12:36:16;8.38;;;1.90;;
49221;SDS011;35047;37.588;-122.048;2022-08-02T12:41:21;4.28;;;1.73;;
49221;SDS011;35047;37.588;-122.048;2022-08-02T12:43:49;5.18;;;1.58;;
49221;SDS011;35047;37.588;-122.048;2022-08-02T12:46:19;4.05;;;1.48;;
49221;SDS011;35047;37.588;-122.048;2022-08-02T12:48:47;3.30;;;1.55;;
49221;SDS011;35047;37.588;-122.048;2022-08-02T12:51:25;2.88;;;1.55;;
49221;SDS011;35047;37.588;-122.048;2022-08-02T12:54:15;3.25;;;1.70;;
49221;SDS011;35047;37.588;-122.048;2022-08-02T12:56:47;2.35;;;1.95;;
49221;SDS011;35047;37.588;-122.048;2022-08-02T12:59:15;2.65;;;1.63;;
49221;SDS011;35047;37.588;-122.048;2022-08-02T13:02:01;2.95;;;1.67;;
49221;SDS011;35047;37.588;-122.048;2022-08-02T13:04:31;3.22;;;1.60;;
49221;SDS011;35047;37.588;-122.048;2022-08-02T13:06:59;3.00;;;1.67;;
49221;SDS011;35047;37.588;-122.048;2022-08-02T13:09:25;4.65;;;1.60;;
49221;SDS011;35047;37.588;-122.048;2022-08-02T13:11:53;5.50;;;1.88;;
49221;SDS011;35047;37.588;-122.048;2022-08-02T13:14:19;3.13;;;1.58;;
49221;SDS011;35047;37.588;-122.048;2022-08-02T13:16:46;4.97;;;1.92;;
49221;SDS011;35047;37.588;-122.048;2022-08-02T13:19:13;5.15;;;2.05;;
49221;SDS011;35047;37.588;-122.048;2022-08-02T13:21:40;2.13;;;1.60;;
49221;SDS011;35047;37.588;-122.048;2022-08-02T13:24:07;5.05;;;1.80;;
49221;SDS011;35047;37.588;-122.048;2022-08-02T13:26:35;3.33;;;1.77;;
49221;SDS011;35047;37.588;-122.048;2022-08-02T13:29:01;3.63;;;1.50;;
49221;SDS011;35047;37.588;-122.048;2022-08-02T13:31:28;3.85;;;1.73;;
49221;SDS011;35047;37.588;-122.048;2022-08-02T13:33:58;8.13;;;2.30;;
49221;SDS011;35047;37.588;-122.048;2022-08-02T13:36:26;4.95;;;2.20;;
49221;SDS011;35047;37.588;-122.048;2022-08-02T13:38:52;3.00;;;1.80;;
49221;SDS011;35047;37.588;-122.048;2022-08-02T13:41:19;2.25;;;1.70;;
49221;SDS011;35047;37.588;-122.048;2022-08-02T13:43:45;4.60;;;2.00;;
49221;SDS011;35047;37.588;-122.048;2022-08-02T13:48:38;4.43;;;2.63;;
49221;SDS011;35047;37.588;-122.048;2022-08-02T13:51:05;6.88;;;2.55;;
49221;SDS011;35047;37.588;-122.048;2022-08-02T13:53:38;7.88;;;2.70;;
49221;SDS011;35047;37.588;-122.048;2022-08-02T13:56:07;6.47;;;3.10;;
49221;SDS011;35047;37.588;-122.048;2022-08-02T13:58:34;5.43;;;3.63;;
49221;SDS011;35047;37.588;-122.048;2022-08-02T14:01:01;3.57;;;2.50;;
49221;SDS011;35047;37.588;-122.048;2022-08-02T14:03:28;7.55;;;3.15;;
49221;SDS011;35047;37.588;-122.048;2022-08-02T14:05:55;5.07;;;2.72;;
49221;SDS011;35047;37.588;-122.048;2022-08-02T14:08:22;4.20;;;2.55;;
49221;SDS011;35047;37.588;-122.048;2022-08-02T14:10:49;5.28;;;2.28;;
49221;SDS011;35047;37.588;-122.048;2022-08-02T14:15:44;4.10;;;2.30;;
49221;SDS011;35047;37.588;-122.048;2022-08-02T14:18:11;7.97;;;3.13;;
49221;SDS011;35047;37.588;-122.048;2022-08-02T14:20:41;6.63;;;3.38;;
49221;SDS011;35047;37.588;-122.048;2022-08-02T14:23:08;3.53;;;2.78;;
49221;SDS011;35047;37.588;-122.048;2022-08-02T14:25:36;5.60;;;3.08;;
49221;SDS011;35047;37.588;-122.048;2022-08-02T14:28:03;5.63;;;2.58;;
49221;SDS011;35047;37.588;-122.048;2022-08-02T14:30:30;5.75;;;2.80;;
49221;SDS011;35047;37.588;-122.048;2022-08-02T14:32:57;7.85;;;2.70;;
49221;SDS011;35047;37.588;-122.048;2022-08-02T14:35:24;7.20;;;2.50;;
49221;SDS011;35047;37.588;-122.048;2022-08-02T14:37:51;4.68;;;2.90;;
49221;SDS011;35047;37.588;-122.048;2022-08-02T14:40:18;9.57;;;3.00;;
49221;SDS011;35047;37.588;-122.048;2022-08-02T14:42:45;8.17;;;2.53;;
49221;SDS011;35047;37.588;-122.048;2022-08-02T14:45:12;9.13;;;2.78;;
49221;SDS011;35047;37.588;-122.048;2022-08-02T14:47:40;5.22;;;2.40;;
49221;SDS011;35047;37.588;-122.048;2022-08-02T14:50:06;7.17;;;3.03;;
49221;SDS011;35047;37.588;-122.048;2022-08-02T14:52:33;17.02;;;3.08;;
49221;SDS011;35047;37.588;-122.048;2022-08-02T14:55:00;7.70;;;3.15;;
49221;SDS011;35047;37.588;-122.048;2022-08-02T14:57:28;4.45;;;2.85;;
49221;SDS011;35047;37.588;-122.048;2022-08-02T14:59:55;4.43;;;2.65;;
49221;SDS011;35047;37.588;-122.048;2022-08-02T15:02:25;6.00;;;2.88;;
49221;SDS011;35047;37.588;-122.048;2022-08-02T15:04:52;3.40;;;3.03;;
49221;SDS011;35047;37.588;-122.048;2022-08-02T15:07:18;9.88;;;3.05;;
49221;SDS011;35047;37.588;-122.048;2022-08-02T15:09:45;6.90;;;3.35;;
49221;SDS011;35047;37.588;-122.048;2022-08-02T15:12:11;5.03;;;3.15;;
49221;SDS011;35047;37.588;-122.048;2022-08-02T15:14:38;8.63;;;3.45;;
49221;SDS011;35047;37.588;-122.048;2022-08-02T15:19:33;4.25;;;3.22;;
49221;SDS011;35047;37.588;-122.048;2022-08-02T15:21:59;6.97;;;3.30;;
49221;SDS011;35047;37.588;-122.048;2022-08-02T15:24:26;8.02;;;3.22;;
49221;SDS011;35047;37.588;-122.048;2022-08-02T15:26:53;5.07;;;3.08;;
49221;SDS011;35047;37.588;-122.048;2022-08-02T15:29:21;6.43;;;3.40;;
49221;SDS011;35047;37.588;-122.048;2022-08-02T15:31:47;4.80;;;3.22;;
49221;SDS011;35047;37.588;-122.048;2022-08-02T15:34:14;7.03;;;3.13;;
49221;SDS011;35047;37.588;-122.048;2022-08-02T15:36:41;6.18;;;3.08;;
49221;SDS011;35047;37.588;-122.048;2022-08-02T15:39:08;5.25;;;3.15;;
49221;SDS011;35047;37.588;-122.048;2022-08-02T15:41:35;6.93;;;2.88;;
49221;SDS011;35047;37.588;-122.048;2022-08-02T15:44:02;3.92;;;2.88;;
49221;SDS011;35047;37.588;-122.048;2022-08-02T15:46:28;3.85;;;2.75;;
49221;SDS011;35047;37.588;-122.048;2022-08-02T15:49:02;7.72;;;3.10;;
49221;SDS011;35047;37.588;-122.048;2022-08-02T15:51:29;11.07;;;2.55;;